sensor_id;sensor_type;location;lat;lon;timestamp;temperature;humidity
11965;DHT22;6042;41.326;19.826;2024-02-23T00:02:02;9.00;99.90
11965;DHT22;6042;41.326;19.826;2024-02-23T00:04:30;9.10;99.90
11965;DHT22;6042;41.326;19.826;2024-02-23T00:07:01;8.90;99.90
11965;DHT22;6042;41.326;19.826;2024-02-23T00:09:30;9.00;99.90
11965;DHT22;6042;41.326;19.826;2024-02-23T00:11:58;9.00;99.90
11965;DHT22;6042;41.326;19.826;2024-02-23T00:14:27;8.90;99.90
11965;DHT22;6042;41.326;19.826;2024-02-23T00:16:58;9.00;99.90
11965;DHT22;6042;41.326;19.826;2024-02-23T00:19:30;8.90;99.90
11965;DHT22;6042;41.326;19.826;2024-02-23T00:22:00;8.90;99.90
11965;DHT22;6042;41.326;19.826;2024-02-23T00:24:31;8.90;99.90
11965;DHT22;6042;41.326;19.826;2024-02-23T00:27:00;8.80;99.90
11965;DHT22;6042;41.326;19.826;2024-02-23T00:29:28;8.70;99.90
11965;DHT22;6042;41.326;19.826;2024-02-23T00:31:57;8.70;99.90
11965;DHT22;6042;41.326;19.826;2024-02-23T00:34:25;8.40;99.90
11965;DHT22;6042;41.326;19.826;2024-02-23T00:36:54;8.40;99.90
11965;DHT22;6042;41.326;19.826;2024-02-23T00:39:23;8.50;99.90
11965;DHT22;6042;41.326;19.826;2024-02-23T00:41:52;8.30;99.90
11965;DHT22;6042;41.326;19.826;2024-02-23T00:44:20;8.30;99.90
11965;DHT22;6042;41.326;19.826;2024-02-23T00:46:49;8.50;99.90
11965;DHT22;6042;41.326;19.826;2024-02-23T00:49:18;8.30;99.90
11965;DHT22;6042;41.326;19.826;2024-02-23T00:51:46;8.30;99.90
11965;DHT22;6042;41.326;19.826;2024-02-23T00:54:14;8.40;99.90
11965;DHT22;6042;41.326;19.826;2024-02-23T00:56:44;8.20;99.90
11965;DHT22;6042;41.326;19.826;2024-02-23T00:59:18;8.30;99.90
11965;DHT22;6042;41.326;19.826;2024-02-23T01:01:48;8.40;99.90
11965;DHT22;6042;41.326;19.826;2024-02-23T01:04:16;8.30;99.90
11965;DHT22;6042;41.326;19.826;2024-02-23T01:06:45;8.40;99.90
11965;DHT22;6042;41.326;19.826;2024-02-23T01:09:13;8.50;99.90
11965;DHT22;6042;41.326;19.826;2024-02-23T01:11:45;8.30;99.90
11965;DHT22;6042;41.326;19.826;2024-02-23T01:14:13;8.30;99.90
11965;DHT22;6042;41.326;19.826;2024-02-23T01:16:42;8.40;99.90
11965;DHT22;6042;41.326;19.826;2024-02-23T01:19:10;8.20;99.90
11965;DHT22;6042;41.326;19.826;2024-02-23T01:21:40;8.30;99.90
11965;DHT22;6042;41.326;19.826;2024-02-23T01:24:09;8.30;99.90
11965;DHT22;6042;41.326;19.826;2024-02-23T01:26:37;8.20;99.90
11965;DHT22;6042;41.326;19.826;2024-02-23T01:29:10;8.20;99.90
11965;DHT22;6042;41.326;19.826;2024-02-23T01:31:39;8.30;99.90
11965;DHT22;6042;41.326;19.826;2024-02-23T01:34:07;8.30;99.90
11965;DHT22;6042;41.326;19.826;2024-02-23T01:36:36;8.30;99.90
11965;DHT22;6042;41.326;19.826;2024-02-23T01:39:06;8.40;99.90
11965;DHT22;6042;41.326;19.826;2024-02-23T01:41:35;8.40;99.90
11965;DHT22;6042;41.326;19.826;2024-02-23T01:44:04;8.40;99.90
11965;DHT22;6042;41.326;19.826;2024-02-23T01:46:34;8.50;99.90
11965;DHT22;6042;41.326;19.826;2024-02-23T01:49:03;8.40;99.90
11965;DHT22;6042;41.326;19.826;2024-02-23T01:51:32;8.40;99.90
11965;DHT22;6042;41.326;19.826;2024-02-23T01:54:01;8.50;99.90
11965;DHT22;6042;41.326;19.826;2024-02-23T01:56:31;8.50;99.90
11965;DHT22;6042;41.326;19.826;2024-02-23T01:59:02;8.50;99.90
11965;DHT22;6042;41.326;19.826;2024-02-23T02:01:31;8.70;99.90
11965;DHT22;6042;41.326;19.826;2024-02-23T02:04:01;8.60;99.90
11965;DHT22;6042;41.326;19.826;2024-02-23T02:06:30;8.70;99.90
11965;DHT22;6042;41.326;19.826;2024-02-23T02:08:58;8.80;99.90
11965;DHT22;6042;41.326;19.826;2024-02-23T02:11:27;8.70;99.90
11965;DHT22;6042;41.326;19.826;2024-02-23T02:13:55;8.90;99.90
11965;DHT22;6042;41.326;19.826;2024-02-23T02:16:24;9.00;99.90
11965;DHT22;6042;41.326;19.826;2024-02-23T02:18:52;9.00;99.90
11965;DHT22;6042;41.326;19.826;2024-02-23T02:21:22;9.20;99.90
11965;DHT22;6042;41.326;19.826;2024-02-23T02:23:52;9.30;99.90
11965;DHT22;6042;41.326;19.826;2024-02-23T02:26:20;9.40;99.90
11965;DHT22;6042;41.326;19.826;2024-02-23T02:28:50;9.40;99.90
11965;DHT22;6042;41.326;19.826;2024-02-23T02:31:19;9.50;99.90
11965;DHT22;6042;41.326;19.826;2024-02-23T02:33:48;9.30;99.90
11965;DHT22;6042;41.326;19.826;2024-02-23T02:36:16;9.40;99.90
11965;DHT22;6042;41.326;19.826;2024-02-23T02:38:46;9.50;99.90
11965;DHT22;6042;41.326;19.826;2024-02-23T02:41:16;9.40;99.90
11965;DHT22;6042;41.326;19.826;2024-02-23T02:43:45;9.40;99.90
11965;DHT22;6042;41.326;19.826;2024-02-23T02:46:14;9.50;99.90
11965;DHT22;6042;41.326;19.826;2024-02-23T02:48:42;9.30;99.90
11965;DHT22;6042;41.326;19.826;2024-02-23T02:51:11;9.40;99.90
11965;DHT22;6042;41.326;19.826;2024-02-23T02:53:39;9.50;99.90
11965;DHT22;6042;41.326;19.826;2024-02-23T02:56:09;9.40;99.90
11965;DHT22;6042;41.326;19.826;2024-02-23T02:58:37;9.60;99.90
11965;DHT22;6042;41.326;19.826;2024-02-23T03:01:06;9.80;99.90
11965;DHT22;6042;41.326;19.826;2024-02-23T03:03:35;9.50;99.90
11965;DHT22;6042;41.326;19.826;2024-02-23T03:06:02;9.60;99.90
11965;DHT22;6042;41.326;19.826;2024-02-23T03:08:33;9.70;99.90
11965;DHT22;6042;41.326;19.826;2024-02-23T03:11:02;9.50;99.90
11965;DHT22;6042;41.326;19.826;2024-02-23T03:13:32;9.70;99.90
11965;DHT22;6042;41.326;19.826;2024-02-23T03:16:01;9.70;99.90
11965;DHT22;6042;41.326;19.826;2024-02-23T03:18:29;9.70;99.90
11965;DHT22;6042;41.326;19.826;2024-02-23T03:20:57;9.80;99.90
11965;DHT22;6042;41.326;19.826;2024-02-23T03:23:26;9.80;99.90
11965;DHT22;6042;41.326;19.826;2024-02-23T03:25:54;9.70;99.90
11965;DHT22;6042;41.326;19.826;2024-02-23T03:28:23;9.70;99.90
11965;DHT22;6042;41.326;19.826;2024-02-23T03:30:52;9.70;99.90
11965;DHT22;6042;41.326;19.826;2024-02-23T03:33:21;9.60;99.90
11965;DHT22;6042;41.326;19.826;2024-02-23T03:35:49;9.70;99.90
11965;DHT22;6042;41.326;19.826;2024-02-23T03:38:18;9.60;99.90
11965;DHT22;6042;41.326;19.826;2024-02-23T03:40:46;9.60;99.90
11965;DHT22;6042;41.326;19.826;2024-02-23T03:43:15;9.60;99.90
11965;DHT22;6042;41.326;19.826;2024-02-23T03:45:43;9.50;99.90
11965;DHT22;6042;41.326;19.826;2024-02-23T03:48:13;9.60;99.90
11965;DHT22;6042;41.326;19.826;2024-02-23T03:50:42;9.70;99.90
11965;DHT22;6042;41.326;19.826;2024-02-23T03:53:10;9.50;99.90
11965;DHT22;6042;41.326;19.826;2024-02-23T03:55:38;9.60;99.90
11965;DHT22;6042;41.326;19.826;2024-02-23T03:58:07;9.70;99.90
11965;DHT22;6042;41.326;19.826;2024-02-23T04:00:35;9.50;99.90
11965;DHT22;6042;41.326;19.826;2024-02-23T04:03:04;9.60;99.90
11965;DHT22;6042;41.326;19.826;2024-02-23T04:05:34;9.70;99.90
11965;DHT22;6042;41.326;19.826;2024-02-23T04:08:03;9.50;99.90
11965;DHT22;6042;41.326;19.826;2024-02-23T04:10:32;9.50;99.90
11965;DHT22;6042;41.326;19.826;2024-02-23T04:13:01;9.70;99.90
11965;DHT22;6042;41.326;19.826;2024-02-23T04:15:29;9.60;99.90
11965;DHT22;6042;41.326;19.826;2024-02-23T04:17:58;9.70;99.90
11965;DHT22;6042;41.326;19.826;2024-02-23T04:20:26;9.70;99.90
11965;DHT22;6042;41.326;19.826;2024-02-23T04:22:56;9.60;99.90
11965;DHT22;6042;41.326;19.826;2024-02-23T04:25:24;9.60;99.90
11965;DHT22;6042;41.326;19.826;2024-02-23T04:27:53;9.60;99.90
11965;DHT22;6042;41.326;19.826;2024-02-23T04:30:23;9.50;99.90
11965;DHT22;6042;41.326;19.826;2024-02-23T04:32:52;9.50;99.90
11965;DHT22;6042;41.326;19.826;2024-02-23T04:35:20;9.40;99.90
11965;DHT22;6042;41.326;19.826;2024-02-23T04:37:48;9.40;99.90
11965;DHT22;6042;41.326;19.826;2024-02-23T04:40:19;9.40;99.90
11965;DHT22;6042;41.326;19.826;2024-02-23T04:42:47;9.30;99.90
11965;DHT22;6042;41.326;19.826;2024-02-23T04:45:16;9.40;99.90
11965;DHT22;6042;41.326;19.826;2024-02-23T04:47:44;9.50;99.90
11965;DHT22;6042;41.326;19.826;2024-02-23T04:50:14;9.40;99.90
11965;DHT22;6042;41.326;19.826;2024-02-23T04:52:42;9.40;99.90
11965;DHT22;6042;41.326;19.826;2024-02-23T04:55:11;9.50;99.90
11965;DHT22;6042;41.326;19.826;2024-02-23T04:57:41;9.30;99.90
11965;DHT22;6042;41.326;19.826;2024-02-23T05:00:11;9.30;99.90
11965;DHT22;6042;41.326;19.826;2024-02-23T05:02:39;9.40;99.90
11965;DHT22;6042;41.326;19.826;2024-02-23T05:05:08;9.10;99.90
11965;DHT22;6042;41.326;19.826;2024-02-23T05:07:36;9.10;99.90
11965;DHT22;6042;41.326;19.826;2024-02-23T05:10:05;9.30;99.90
11965;DHT22;6042;41.326;19.826;2024-02-23T05:12:34;9.10;99.90
11965;DHT22;6042;41.326;19.826;2024-02-23T05:15:04;9.30;99.90
11965;DHT22;6042;41.326;19.826;2024-02-23T05:17:33;9.40;99.90
11965;DHT22;6042;41.326;19.826;2024-02-23T05:20:01;9.30;99.90
11965;DHT22;6042;41.326;19.826;2024-02-23T05:22:35;9.20;99.90
11965;DHT22;6042;41.326;19.826;2024-02-23T05:25:03;9.10;99.90
11965;DHT22;6042;41.326;19.826;2024-02-23T05:27:32;8.90;99.90
11965;DHT22;6042;41.326;19.826;2024-02-23T05:30:01;8.80;99.90
11965;DHT22;6042;41.326;19.826;2024-02-23T05:32:30;8.90;99.90
11965;DHT22;6042;41.326;19.826;2024-02-23T05:34:59;8.80;99.90
11965;DHT22;6042;41.326;19.826;2024-02-23T05:37:27;8.90;99.90
11965;DHT22;6042;41.326;19.826;2024-02-23T05:39:56;9.00;99.90
11965;DHT22;6042;41.326;19.826;2024-02-23T05:42:27;9.00;99.90
11965;DHT22;6042;41.326;19.826;2024-02-23T05:44:55;9.00;99.90
11965;DHT22;6042;41.326;19.826;2024-02-23T05:47:24;9.00;99.90
11965;DHT22;6042;41.326;19.826;2024-02-23T05:49:54;8.80;99.90
11965;DHT22;6042;41.326;19.826;2024-02-23T05:52:23;8.80;99.90
11965;DHT22;6042;41.326;19.826;2024-02-23T05:54:51;8.90;99.90
11965;DHT22;6042;41.326;19.826;2024-02-23T05:57:22;8.80;99.90
11965;DHT22;6042;41.326;19.826;2024-02-23T05:59:51;8.80;99.90
11965;DHT22;6042;41.326;19.826;2024-02-23T06:02:19;8.90;99.90
11965;DHT22;6042;41.326;19.826;2024-02-23T06:04:48;8.90;99.90
11965;DHT22;6042;41.326;19.826;2024-02-23T06:07:18;8.90;99.90
11965;DHT22;6042;41.326;19.826;2024-02-23T06:09:48;9.00;99.90
11965;DHT22;6042;41.326;19.826;2024-02-23T06:12:17;8.90;99.90
11965;DHT22;6042;41.326;19.826;2024-02-23T06:14:45;9.00;99.90
11965;DHT22;6042;41.326;19.826;2024-02-23T06:17:14;9.20;99.90
11965;DHT22;6042;41.326;19.826;2024-02-23T06:19:42;9.10;99.90
11965;DHT22;6042;41.326;19.826;2024-02-23T06:22:11;9.10;99.90
11965;DHT22;6042;41.326;19.826;2024-02-23T06:24:40;9.30;99.90
11965;DHT22;6042;41.326;19.826;2024-02-23T06:27:09;9.10;99.90
11965;DHT22;6042;41.326;19.826;2024-02-23T06:29:37;9.20;99.90
11965;DHT22;6042;41.326;19.826;2024-02-23T06:32:06;9.40;99.90
11965;DHT22;6042;41.326;19.826;2024-02-23T06:34:35;9.30;99.90
11965;DHT22;6042;41.326;19.826;2024-02-23T06:37:04;9.40;99.90
11965;DHT22;6042;41.326;19.826;2024-02-23T06:39:32;9.60;99.90
11965;DHT22;6042;41.326;19.826;2024-02-23T06:42:02;9.60;99.90
11965;DHT22;6042;41.326;19.826;2024-02-23T06:44:31;9.80;99.90
11965;DHT22;6042;41.326;19.826;2024-02-23T06:47:00;10.00;99.90
11965;DHT22;6042;41.326;19.826;2024-02-23T06:49:28;9.90;99.90
11965;DHT22;6042;41.326;19.826;2024-02-23T06:51:57;10.10;99.90
11965;DHT22;6042;41.326;19.826;2024-02-23T06:54:25;10.20;99.90
11965;DHT22;6042;41.326;19.826;2024-02-23T06:56:54;10.00;99.90
11965;DHT22;6042;41.326;19.826;2024-02-23T06:59:23;10.20;99.90
11965;DHT22;6042;41.326;19.826;2024-02-23T07:01:52;10.30;99.90
11965;DHT22;6042;41.326;19.826;2024-02-23T07:04:21;10.40;99.90
11965;DHT22;6042;41.326;19.826;2024-02-23T07:06:49;10.60;99.90
11965;DHT22;6042;41.326;19.826;2024-02-23T07:09:18;10.80;99.90
11965;DHT22;6042;41.326;19.826;2024-02-23T07:11:46;10.90;99.90
11965;DHT22;6042;41.326;19.826;2024-02-23T07:14:15;11.00;99.90
11965;DHT22;6042;41.326;19.826;2024-02-23T07:16:45;11.00;99.90
11965;DHT22;6042;41.326;19.826;2024-02-23T07:19:14;11.10;99.90
11965;DHT22;6042;41.326;19.826;2024-02-23T07:21:42;11.40;99.90
11965;DHT22;6042;41.326;19.826;2024-02-23T07:24:11;11.50;99.90
11965;DHT22;6042;41.326;19.826;2024-02-23T07:26:39;11.70;99.90
11965;DHT22;6042;41.326;19.826;2024-02-23T07:29:08;11.90;99.90
11965;DHT22;6042;41.326;19.826;2024-02-23T07:31:36;12.00;99.90
11965;DHT22;6042;41.326;19.826;2024-02-23T07:34:06;12.30;99.90
11965;DHT22;6042;41.326;19.826;2024-02-23T07:36:36;12.30;99.90
11965;DHT22;6042;41.326;19.826;2024-02-23T07:39:07;12.40;99.90
11965;DHT22;6042;41.326;19.826;2024-02-23T07:41:36;12.70;99.90
11965;DHT22;6042;41.326;19.826;2024-02-23T07:44:04;13.00;99.90
11965;DHT22;6042;41.326;19.826;2024-02-23T07:46:32;13.30;99.90
11965;DHT22;6042;41.326;19.826;2024-02-23T07:49:01;13.50;99.90
11965;DHT22;6042;41.326;19.826;2024-02-23T07:51:31;13.70;99.90
11965;DHT22;6042;41.326;19.826;2024-02-23T07:53:59;13.90;99.90
11965;DHT22;6042;41.326;19.826;2024-02-23T07:56:28;14.00;99.90
11965;DHT22;6042;41.326;19.826;2024-02-23T07:58:57;14.20;99.90
11965;DHT22;6042;41.326;19.826;2024-02-23T08:01:25;14.30;99.90
11965;DHT22;6042;41.326;19.826;2024-02-23T08:03:54;14.50;99.90
11965;DHT22;6042;41.326;19.826;2024-02-23T08:06:22;14.60;99.90
11965;DHT22;6042;41.326;19.826;2024-02-23T08:08:52;14.70;99.90
11965;DHT22;6042;41.326;19.826;2024-02-23T08:11:22;14.80;99.90
11965;DHT22;6042;41.326;19.826;2024-02-23T08:13:51;15.10;99.90
11965;DHT22;6042;41.326;19.826;2024-02-23T08:16:19;15.20;99.90
11965;DHT22;6042;41.326;19.826;2024-02-23T08:18:48;15.30;99.90
11965;DHT22;6042;41.326;19.826;2024-02-23T08:21:16;15.40;99.90
11965;DHT22;6042;41.326;19.826;2024-02-23T08:23:46;15.40;99.90
11965;DHT22;6042;41.326;19.826;2024-02-23T08:26:15;15.30;99.90
11965;DHT22;6042;41.326;19.826;2024-02-23T08:28:44;15.30;99.90
11965;DHT22;6042;41.326;19.826;2024-02-23T08:31:12;15.40;99.90
11965;DHT22;6042;41.326;19.826;2024-02-23T08:33:41;15.40;99.90
11965;DHT22;6042;41.326;19.826;2024-02-23T08:36:10;15.40;99.90
11965;DHT22;6042;41.326;19.826;2024-02-23T08:38:39;15.60;99.90
11965;DHT22;6042;41.326;19.826;2024-02-23T08:41:07;15.50;99.90
11965;DHT22;6042;41.326;19.826;2024-02-23T08:43:38;15.60;99.90
11965;DHT22;6042;41.326;19.826;2024-02-23T08:46:06;15.50;99.90
11965;DHT22;6042;41.326;19.826;2024-02-23T08:48:36;15.30;99.90
11965;DHT22;6042;41.326;19.826;2024-02-23T08:51:05;15.20;99.90
11965;DHT22;6042;41.326;19.826;2024-02-23T08:53:33;15.20;99.90
11965;DHT22;6042;41.326;19.826;2024-02-23T08:56:02;15.10;99.90
11965;DHT22;6042;41.326;19.826;2024-02-23T08:58:31;15.00;99.90
11965;DHT22;6042;41.326;19.826;2024-02-23T09:01:01;15.00;99.90
11965;DHT22;6042;41.326;19.826;2024-02-23T09:03:31;15.10;99.90
11965;DHT22;6042;41.326;19.826;2024-02-23T09:05:59;15.00;99.90
11965;DHT22;6042;41.326;19.826;2024-02-23T09:08:38;15.20;99.90
11965;DHT22;6042;41.326;19.826;2024-02-23T09:11:08;15.20;99.90
11965;DHT22;6042;41.326;19.826;2024-02-23T09:13:39;15.40;99.90
11965;DHT22;6042;41.326;19.826;2024-02-23T09:16:10;15.50;99.90
11965;DHT22;6042;41.326;19.826;2024-02-23T09:18:38;15.50;99.90
11965;DHT22;6042;41.326;19.826;2024-02-23T09:21:07;15.60;99.90
11965;DHT22;6042;41.326;19.826;2024-02-23T09:23:35;15.80;99.90
11965;DHT22;6042;41.326;19.826;2024-02-23T09:26:09;15.70;99.90
11965;DHT22;6042;41.326;19.826;2024-02-23T09:28:38;15.80;99.90
11965;DHT22;6042;41.326;19.826;2024-02-23T09:31:09;15.90;99.90
11965;DHT22;6042;41.326;19.826;2024-02-23T09:33:37;16.10;99.90
11965;DHT22;6042;41.326;19.826;2024-02-23T09:36:06;16.20;99.90
11965;DHT22;6042;41.326;19.826;2024-02-23T09:38:37;16.20;99.90
11965;DHT22;6042;41.326;19.826;2024-02-23T09:41:14;16.50;99.90
11965;DHT22;6042;41.326;19.826;2024-02-23T09:43:44;16.60;99.90
11965;DHT22;6042;41.326;19.826;2024-02-23T09:46:16;16.80;99.90
11965;DHT22;6042;41.326;19.826;2024-02-23T09:48:46;16.90;99.90
11965;DHT22;6042;41.326;19.826;2024-02-23T09:51:17;16.90;99.90
11965;DHT22;6042;41.326;19.826;2024-02-23T09:53:48;16.80;99.90
11965;DHT22;6042;41.326;19.826;2024-02-23T09:56:18;16.50;99.90
11965;DHT22;6042;41.326;19.826;2024-02-23T09:58:50;16.50;99.90
11965;DHT22;6042;41.326;19.826;2024-02-23T10:01:27;16.50;99.90
11965;DHT22;6042;41.326;19.826;2024-02-23T10:03:56;16.50;99.90
11965;DHT22;6042;41.326;19.826;2024-02-23T10:06:25;16.30;99.90
11965;DHT22;6042;41.326;19.826;2024-02-23T10:08:54;16.30;99.90
11965;DHT22;6042;41.326;19.826;2024-02-23T10:11:24;16.50;99.90
11965;DHT22;6042;41.326;19.826;2024-02-23T10:13:52;16.60;99.90
11965;DHT22;6042;41.326;19.826;2024-02-23T10:16:22;16.70;99.90
11965;DHT22;6042;41.326;19.826;2024-02-23T10:18:51;16.70;99.90
11965;DHT22;6042;41.326;19.826;2024-02-23T10:21:20;16.70;99.90
11965;DHT22;6042;41.326;19.826;2024-02-23T10:23:48;16.80;99.90
11965;DHT22;6042;41.326;19.826;2024-02-23T10:26:19;16.80;99.90
11965;DHT22;6042;41.326;19.826;2024-02-23T10:28:49;17.10;99.90
11965;DHT22;6042;41.326;19.826;2024-02-23T10:31:18;17.20;99.90
11965;DHT22;6042;41.326;19.826;2024-02-23T10:33:50;17.10;99.90
11965;DHT22;6042;41.326;19.826;2024-02-23T10:36:20;17.10;99.90
11965;DHT22;6042;41.326;19.826;2024-02-23T10:38:52;17.00;99.90
11965;DHT22;6042;41.326;19.826;2024-02-23T10:41:22;17.10;99.90
11965;DHT22;6042;41.326;19.826;2024-02-23T10:43:51;17.10;99.40
11965;DHT22;6042;41.326;19.826;2024-02-23T10:46:21;17.30;99.40
11965;DHT22;6042;41.326;19.826;2024-02-23T10:48:52;17.40;98.90
11965;DHT22;6042;41.326;19.826;2024-02-23T10:51:22;17.30;99.10
11965;DHT22;6042;41.326;19.826;2024-02-23T10:53:52;17.50;98.70
11965;DHT22;6042;41.326;19.826;2024-02-23T10:56:21;17.50;99.00
11965;DHT22;6042;41.326;19.826;2024-02-23T10:58:51;17.60;99.10
11965;DHT22;6042;41.326;19.826;2024-02-23T11:01:21;17.80;98.70
11965;DHT22;6042;41.326;19.826;2024-02-23T11:03:52;17.70;98.90
11965;DHT22;6042;41.326;19.826;2024-02-23T11:06:27;17.70;98.10
11965;DHT22;6042;41.326;19.826;2024-02-23T11:09:06;17.70;98.40
11965;DHT22;6042;41.326;19.826;2024-02-23T11:11:37;17.70;98.10
11965;DHT22;6042;41.326;19.826;2024-02-23T11:14:07;17.70;97.60
11965;DHT22;6042;41.326;19.826;2024-02-23T11:16:39;17.50;98.00
11965;DHT22;6042;41.326;19.826;2024-02-23T11:19:09;17.40;98.60
11965;DHT22;6042;41.326;19.826;2024-02-23T11:21:39;17.40;98.90
11965;DHT22;6042;41.326;19.826;2024-02-23T11:24:07;17.60;97.90
11965;DHT22;6042;41.326;19.826;2024-02-23T11:26:37;17.60;98.10
11965;DHT22;6042;41.326;19.826;2024-02-23T11:29:12;17.80;98.00
11965;DHT22;6042;41.326;19.826;2024-02-23T11:31:46;18.00;97.70
11965;DHT22;6042;41.326;19.826;2024-02-23T11:34:23;18.00;97.60
11965;DHT22;6042;41.326;19.826;2024-02-23T11:36:53;18.10;97.50
11965;DHT22;6042;41.326;19.826;2024-02-23T11:39:21;18.10;97.50
11965;DHT22;6042;41.326;19.826;2024-02-23T11:41:50;18.40;97.20
11965;DHT22;6042;41.326;19.826;2024-02-23T11:44:19;18.60;97.10
11965;DHT22;6042;41.326;19.826;2024-02-23T11:46:47;18.80;97.10
11965;DHT22;6042;41.326;19.826;2024-02-23T11:49:16;18.80;96.50
11965;DHT22;6042;41.326;19.826;2024-02-23T11:51:46;18.80;96.70
11965;DHT22;6042;41.326;19.826;2024-02-23T11:54:14;19.00;96.20
11965;DHT22;6042;41.326;19.826;2024-02-23T11:56:43;19.00;96.60
11965;DHT22;6042;41.326;19.826;2024-02-23T11:59:11;18.60;97.00
11965;DHT22;6042;41.326;19.826;2024-02-23T12:01:41;18.50;97.30
11965;DHT22;6042;41.326;19.826;2024-02-23T12:04:09;18.60;97.00
11965;DHT22;6042;41.326;19.826;2024-02-23T12:06:38;18.90;96.50
11965;DHT22;6042;41.326;19.826;2024-02-23T12:09:09;18.90;96.30
11965;DHT22;6042;41.326;19.826;2024-02-23T12:11:38;18.90;96.30
11965;DHT22;6042;41.326;19.826;2024-02-23T12:14:07;18.80;96.20
11965;DHT22;6042;41.326;19.826;2024-02-23T12:16:37;18.70;96.70
11965;DHT22;6042;41.326;19.826;2024-02-23T12:19:08;18.40;96.50
11965;DHT22;6042;41.326;19.826;2024-02-23T12:21:36;18.40;97.10
11965;DHT22;6042;41.326;19.826;2024-02-23T12:24:05;18.10;97.00
11965;DHT22;6042;41.326;19.826;2024-02-23T12:26:36;18.10;97.10
11965;DHT22;6042;41.326;19.826;2024-02-23T12:29:05;17.90;97.40
11965;DHT22;6042;41.326;19.826;2024-02-23T12:31:34;18.00;97.40
11965;DHT22;6042;41.326;19.826;2024-02-23T12:34:03;17.90;98.00
11965;DHT22;6042;41.326;19.826;2024-02-23T12:36:36;17.80;98.10
11965;DHT22;6042;41.326;19.826;2024-02-23T12:39:04;18.00;98.00
11965;DHT22;6042;41.326;19.826;2024-02-23T12:41:35;17.80;98.30
11965;DHT22;6042;41.326;19.826;2024-02-23T12:44:04;17.80;98.60
11965;DHT22;6042;41.326;19.826;2024-02-23T12:46:33;17.80;98.40
11965;DHT22;6042;41.326;19.826;2024-02-23T12:49:02;17.60;98.70
11965;DHT22;6042;41.326;19.826;2024-02-23T12:51:31;17.60;98.60
11965;DHT22;6042;41.326;19.826;2024-02-23T12:54:00;17.60;98.70
11965;DHT22;6042;41.326;19.826;2024-02-23T12:56:29;17.70;98.90
11965;DHT22;6042;41.326;19.826;2024-02-23T12:58:59;17.60;99.30
11965;DHT22;6042;41.326;19.826;2024-02-23T13:01:28;17.60;99.00
11965;DHT22;6042;41.326;19.826;2024-02-23T13:03:59;17.40;99.20
11965;DHT22;6042;41.326;19.826;2024-02-23T13:06:27;17.40;99.30
11965;DHT22;6042;41.326;19.826;2024-02-23T13:08:56;17.30;99.30
11965;DHT22;6042;41.326;19.826;2024-02-23T13:11:25;17.30;98.80
11965;DHT22;6042;41.326;19.826;2024-02-23T13:13:54;17.40;98.60
11965;DHT22;6042;41.326;19.826;2024-02-23T13:16:48;17.30;98.70
11965;DHT22;6042;41.326;19.826;2024-02-23T13:19:19;17.30;98.90
11965;DHT22;6042;41.326;19.826;2024-02-23T13:21:48;17.30;99.00
11965;DHT22;6042;41.326;19.826;2024-02-23T13:24:20;17.40;99.10
11965;DHT22;6042;41.326;19.826;2024-02-23T13:26:48;17.40;99.30
11965;DHT22;6042;41.326;19.826;2024-02-23T13:29:17;17.30;99.50
11965;DHT22;6042;41.326;19.826;2024-02-23T13:31:45;17.20;99.70
11965;DHT22;6042;41.326;19.826;2024-02-23T13:34:15;17.20;99.90
11965;DHT22;6042;41.326;19.826;2024-02-23T13:36:46;17.20;99.90
11965;DHT22;6042;41.326;19.826;2024-02-23T13:39:16;17.30;99.90
11965;DHT22;6042;41.326;19.826;2024-02-23T13:41:45;17.40;99.90
11965;DHT22;6042;41.326;19.826;2024-02-23T13:44:13;17.50;99.90
11965;DHT22;6042;41.326;19.826;2024-02-23T13:46:42;17.50;99.90
11965;DHT22;6042;41.326;19.826;2024-02-23T13:49:12;17.50;99.90
11965;DHT22;6042;41.326;19.826;2024-02-23T13:51:42;17.40;99.90
11965;DHT22;6042;41.326;19.826;2024-02-23T13:54:11;17.20;99.90
11965;DHT22;6042;41.326;19.826;2024-02-23T13:56:40;17.20;99.90
11965;DHT22;6042;41.326;19.826;2024-02-23T13:59:08;17.30;99.90
11965;DHT22;6042;41.326;19.826;2024-02-23T14:01:37;17.50;99.90
11965;DHT22;6042;41.326;19.826;2024-02-23T14:04:06;17.70;99.90
11965;DHT22;6042;41.326;19.826;2024-02-23T14:06:35;17.70;99.90
11965;DHT22;6042;41.326;19.826;2024-02-23T14:09:05;17.60;99.90
11965;DHT22;6042;41.326;19.826;2024-02-23T14:11:34;17.70;99.90
11965;DHT22;6042;41.326;19.826;2024-02-23T14:14:04;17.60;99.90
11965;DHT22;6042;41.326;19.826;2024-02-23T14:16:33;17.50;99.90
11965;DHT22;6042;41.326;19.826;2024-02-23T14:19:02;17.40;99.90
11965;DHT22;6042;41.326;19.826;2024-02-23T14:21:30;17.60;99.90
11965;DHT22;6042;41.326;19.826;2024-02-23T14:23:59;17.80;99.90
11965;DHT22;6042;41.326;19.826;2024-02-23T14:26:29;17.90;99.90
11965;DHT22;6042;41.326;19.826;2024-02-23T14:28:57;17.90;99.90
11965;DHT22;6042;41.326;19.826;2024-02-23T14:31:26;17.90;99.90
11965;DHT22;6042;41.326;19.826;2024-02-23T14:33:54;18.00;99.80
11965;DHT22;6042;41.326;19.826;2024-02-23T14:36:23;17.90;99.30
11965;DHT22;6042;41.326;19.826;2024-02-23T14:38:53;18.00;99.40
11965;DHT22;6042;41.326;19.826;2024-02-23T14:41:22;18.00;99.40
11965;DHT22;6042;41.326;19.826;2024-02-23T14:43:52;18.10;99.70
11965;DHT22;6042;41.326;19.826;2024-02-23T14:46:20;18.00;99.70
11965;DHT22;6042;41.326;19.826;2024-02-23T14:48:50;17.80;99.90
11965;DHT22;6042;41.326;19.826;2024-02-23T14:51:18;17.60;99.90
11965;DHT22;6042;41.326;19.826;2024-02-23T14:53:47;17.40;99.90
11965;DHT22;6042;41.326;19.826;2024-02-23T14:56:21;17.40;99.90
11965;DHT22;6042;41.326;19.826;2024-02-23T14:58:49;17.30;99.90
11965;DHT22;6042;41.326;19.826;2024-02-23T15:01:20;17.10;99.90
11965;DHT22;6042;41.326;19.826;2024-02-23T15:03:50;17.10;99.90
11965;DHT22;6042;41.326;19.826;2024-02-23T15:06:19;17.00;99.90
11965;DHT22;6042;41.326;19.826;2024-02-23T15:08:49;17.00;99.90
11965;DHT22;6042;41.326;19.826;2024-02-23T15:11:18;17.10;99.90
11965;DHT22;6042;41.326;19.826;2024-02-23T15:13:47;17.10;99.90
11965;DHT22;6042;41.326;19.826;2024-02-23T15:16:16;17.10;99.90
11965;DHT22;6042;41.326;19.826;2024-02-23T15:18:48;16.80;99.90
11965;DHT22;6042;41.326;19.826;2024-02-23T15:21:18;16.80;99.90
11965;DHT22;6042;41.326;19.826;2024-02-23T15:23:47;16.70;99.90
11965;DHT22;6042;41.326;19.826;2024-02-23T15:26:15;16.40;99.90
11965;DHT22;6042;41.326;19.826;2024-02-23T15:28:44;16.30;99.90
11965;DHT22;6042;41.326;19.826;2024-02-23T15:31:13;16.30;99.90
11965;DHT22;6042;41.326;19.826;2024-02-23T15:33:41;16.20;99.90
11965;DHT22;6042;41.326;19.826;2024-02-23T15:36:12;16.30;99.90
11965;DHT22;6042;41.326;19.826;2024-02-23T15:38:43;16.20;99.90
11965;DHT22;6042;41.326;19.826;2024-02-23T15:41:12;16.20;99.90
11965;DHT22;6042;41.326;19.826;2024-02-23T15:43:40;16.10;99.90
11965;DHT22;6042;41.326;19.826;2024-02-23T15:46:09;16.00;99.90
11965;DHT22;6042;41.326;19.826;2024-02-23T15:48:37;15.90;99.90
11965;DHT22;6042;41.326;19.826;2024-02-23T15:51:06;15.80;99.90